sensor_id;sensor_type;location;lat;lon;timestamp;P1;durP1;ratioP1;P2;durP2;ratioP2
10029;SDS011;5055;52.054;8.524;2022-12-18T00:00:03;0.98;;;0.98;;
10029;SDS011;5055;52.054;8.524;2022-12-18T00:02:32;0.93;;;0.93;;
10029;SDS011;5055;52.054;8.524;2022-12-18T00:05:01;0.82;;;0.82;;
10029;SDS011;5055;52.054;8.524;2022-12-18T00:07:30;0.98;;;0.98;;
10029;SDS011;5055;52.054;8.524;2022-12-18T00:09:58;1.63;;;1.63;;
10029;SDS011;5055;52.054;8.524;2022-12-18T00:12:27;1.38;;;1.38;;
10029;SDS011;5055;52.054;8.524;2022-12-18T00:14:55;1.15;;;1.15;;
10029;SDS011;5055;52.054;8.524;2022-12-18T00:17:23;1.17;;;1.17;;
10029;SDS011;5055;52.054;8.524;2022-12-18T00:19:52;0.87;;;0.87;;
10029;SDS011;5055;52.054;8.524;2022-12-18T00:22:20;1.25;;;1.25;;
10029;SDS011;5055;52.054;8.524;2022-12-18T00:24:49;1.00;;;1.00;;
10029;SDS011;5055;52.054;8.524;2022-12-18T00:27:17;1.10;;;1.10;;
10029;SDS011;5055;52.054;8.524;2022-12-18T00:29:46;1.00;;;1.00;;
10029;SDS011;5055;52.054;8.524;2022-12-18T00:32:15;1.10;;;1.10;;
10029;SDS011;5055;52.054;8.524;2022-12-18T00:34:45;1.40;;;1.40;;
10029;SDS011;5055;52.054;8.524;2022-12-18T00:37:13;1.23;;;1.23;;
10029;SDS011;5055;52.054;8.524;2022-12-18T00:39:47;1.15;;;1.15;;
10029;SDS011;5055;52.054;8.524;2022-12-18T00:42:18;1.65;;;1.65;;
10029;SDS011;5055;52.054;8.524;2022-12-18T00:45:04;1.08;;;1.08;;
10029;SDS011;5055;52.054;8.524;2022-12-18T00:47:38;1.02;;;1.02;;
10029;SDS011;5055;52.054;8.524;2022-12-18T00:50:07;0.95;;;0.95;;
10029;SDS011;5055;52.054;8.524;2022-12-18T00:52:36;1.30;;;1.30;;
10029;SDS011;5055;52.054;8.524;2022-12-18T00:55:06;0.90;;;0.90;;
10029;SDS011;5055;52.054;8.524;2022-12-18T00:57:34;1.25;;;1.25;;
10029;SDS011;5055;52.054;8.524;2022-12-18T01:00:03;1.52;;;1.52;;
10029;SDS011;5055;52.054;8.524;2022-12-18T01:02:33;0.93;;;0.93;;
10029;SDS011;5055;52.054;8.524;2022-12-18T01:05:01;1.15;;;1.15;;
10029;SDS011;5055;52.054;8.524;2022-12-18T01:07:29;1.40;;;1.40;;
10029;SDS011;5055;52.054;8.524;2022-12-18T01:09:57;1.17;;;1.17;;
10029;SDS011;5055;52.054;8.524;2022-12-18T01:12:27;0.50;;;0.50;;
10029;SDS011;5055;52.054;8.524;2022-12-18T01:14:55;0.50;;;0.50;;
10029;SDS011;5055;52.054;8.524;2022-12-18T01:17:23;0.80;;;0.80;;
10029;SDS011;5055;52.054;8.524;2022-12-18T01:19:52;1.90;;;1.90;;
10029;SDS011;5055;52.054;8.524;2022-12-18T01:22:20;1.05;;;1.05;;
10029;SDS011;5055;52.054;8.524;2022-12-18T01:24:48;1.13;;;1.13;;
10029;SDS011;5055;52.054;8.524;2022-12-18T01:27:16;1.15;;;1.15;;
10029;SDS011;5055;52.054;8.524;2022-12-18T01:29:46;1.10;;;1.10;;
10029;SDS011;5055;52.054;8.524;2022-12-18T01:32:14;1.40;;;1.40;;
10029;SDS011;5055;52.054;8.524;2022-12-18T01:34:42;1.30;;;1.30;;
10029;SDS011;5055;52.054;8.524;2022-12-18T01:37:10;1.20;;;1.20;;
10029;SDS011;5055;52.054;8.524;2022-12-18T01:39:39;1.42;;;1.42;;
10029;SDS011;5055;52.054;8.524;2022-12-18T01:42:09;1.33;;;1.33;;
10029;SDS011;5055;52.054;8.524;2022-12-18T01:44:54;1.52;;;1.52;;
10029;SDS011;5055;52.054;8.524;2022-12-18T01:47:29;0.98;;;0.98;;
10029;SDS011;5055;52.054;8.524;2022-12-18T01:50:01;1.08;;;1.08;;
10029;SDS011;5055;52.054;8.524;2022-12-18T01:52:31;1.17;;;1.17;;
10029;SDS011;5055;52.054;8.524;2022-12-18T01:55:01;1.10;;;1.10;;
10029;SDS011;5055;52.054;8.524;2022-12-18T01:57:32;0.95;;;0.95;;
10029;SDS011;5055;52.054;8.524;2022-12-18T02:00:04;1.40;;;1.40;;
10029;SDS011;5055;52.054;8.524;2022-12-18T02:02:34;1.08;;;1.08;;
10029;SDS011;5055;52.054;8.524;2022-12-18T02:05:02;0.77;;;0.77;;
10029;SDS011;5055;52.054;8.524;2022-12-18T02:07:34;0.90;;;0.90;;
10029;SDS011;5055;52.054;8.524;2022-12-18T02:10:11;0.55;;;0.55;;
10029;SDS011;5055;52.054;8.524;2022-12-18T02:12:45;1.00;;;1.00;;
10029;SDS011;5055;52.054;8.524;2022-12-18T02:15:22;1.05;;;1.05;;
10029;SDS011;5055;52.054;8.524;2022-12-18T02:17:56;1.13;;;1.13;;
10029;SDS011;5055;52.054;8.524;2022-12-18T02:20:28;1.00;;;1.00;;
10029;SDS011;5055;52.054;8.524;2022-12-18T02:23:09;1.40;;;1.40;;
10029;SDS011;5055;52.054;8.524;2022-12-18T02:25:59;1.48;;;1.48;;
10029;SDS011;5055;52.054;8.524;2022-12-18T02:28:35;1.45;;;1.45;;
10029;SDS011;5055;52.054;8.524;2022-12-18T02:31:14;1.23;;;1.23;;
10029;SDS011;5055;52.054;8.524;2022-12-18T02:33:45;1.15;;;1.15;;
10029;SDS011;5055;52.054;8.524;2022-12-18T02:36:14;1.00;;;1.00;;
10029;SDS011;5055;52.054;8.524;2022-12-18T02:38:43;1.33;;;1.33;;
10029;SDS011;5055;52.054;8.524;2022-12-18T02:41:14;0.95;;;0.95;;
10029;SDS011;5055;52.054;8.524;2022-12-18T02:43:48;1.35;;;1.35;;
10029;SDS011;5055;52.054;8.524;2022-12-18T02:46:27;1.15;;;1.15;;
10029;SDS011;5055;52.054;8.524;2022-12-18T02:49:01;0.95;;;0.95;;
10029;SDS011;5055;52.054;8.524;2022-12-18T02:51:42;1.13;;;1.13;;
10029;SDS011;5055;52.054;8.524;2022-12-18T02:54:20;1.20;;;1.20;;
10029;SDS011;5055;52.054;8.524;2022-12-18T02:56:55;1.15;;;1.15;;
10029;SDS011;5055;52.054;8.524;2022-12-18T02:59:30;0.93;;;0.93;;
10029;SDS011;5055;52.054;8.524;2022-12-18T03:02:08;1.25;;;1.25;;
10029;SDS011;5055;52.054;8.524;2022-12-18T03:04:47;1.80;;;1.80;;
10029;SDS011;5055;52.054;8.524;2022-12-18T03:07:18;1.10;;;1.10;;
10029;SDS011;5055;52.054;8.524;2022-12-18T03:09:51;1.23;;;1.23;;
10029;SDS011;5055;52.054;8.524;2022-12-18T03:12:24;0.65;;;0.65;;
10029;SDS011;5055;52.054;8.524;2022-12-18T03:14:59;1.35;;;1.35;;
10029;SDS011;5055;52.054;8.524;2022-12-18T03:17:31;1.08;;;1.08;;
10029;SDS011;5055;52.054;8.524;2022-12-18T03:20:03;0.93;;;0.93;;
10029;SDS011;5055;52.054;8.524;2022-12-18T03:22:35;1.58;;;1.58;;
10029;SDS011;5055;52.054;8.524;2022-12-18T03:25:05;1.83;;;1.83;;
10029;SDS011;5055;52.054;8.524;2022-12-18T03:27:40;1.40;;;1.40;;
10029;SDS011;5055;52.054;8.524;2022-12-18T03:30:13;1.40;;;1.40;;
10029;SDS011;5055;52.054;8.524;2022-12-18T03:32:44;1.25;;;1.25;;
10029;SDS011;5055;52.054;8.524;2022-12-18T03:35:16;1.50;;;1.50;;
10029;SDS011;5055;52.054;8.524;2022-12-18T03:37:48;1.30;;;1.30;;
10029;SDS011;5055;52.054;8.524;2022-12-18T03:40:17;1.35;;;1.35;;
10029;SDS011;5055;52.054;8.524;2022-12-18T03:42:48;1.38;;;1.38;;
10029;SDS011;5055;52.054;8.524;2022-12-18T03:45:21;1.15;;;1.15;;
10029;SDS011;5055;52.054;8.524;2022-12-18T03:47:55;1.15;;;1.15;;
10029;SDS011;5055;52.054;8.524;2022-12-18T03:50:31;1.73;;;1.73;;
10029;SDS011;5055;52.054;8.524;2022-12-18T03:53:07;1.20;;;1.20;;
10029;SDS011;5055;52.054;8.524;2022-12-18T03:55:45;1.55;;;1.55;;
10029;SDS011;5055;52.054;8.524;2022-12-18T03:58:17;1.45;;;1.45;;
10029;SDS011;5055;52.054;8.524;2022-12-18T04:00:50;1.85;;;1.85;;
10029;SDS011;5055;52.054;8.524;2022-12-18T04:03:21;0.70;;;0.70;;
10029;SDS011;5055;52.054;8.524;2022-12-18T04:05:52;1.60;;;1.60;;
10029;SDS011;5055;52.054;8.524;2022-12-18T04:08:22;1.17;;;1.17;;
10029;SDS011;5055;52.054;8.524;2022-12-18T04:10:52;1.38;;;1.38;;
10029;SDS011;5055;52.054;8.524;2022-12-18T04:13:27;1.20;;;1.20;;
10029;SDS011;5055;52.054;8.524;2022-12-18T04:15:56;1.38;;;1.38;;
10029;SDS011;5055;52.054;8.524;2022-12-18T04:18:25;1.52;;;1.52;;
10029;SDS011;5055;52.054;8.524;2022-12-18T04:20:53;1.05;;;1.05;;
10029;SDS011;5055;52.054;8.524;2022-12-18T04:23:22;1.13;;;1.13;;
10029;SDS011;5055;52.054;8.524;2022-12-18T04:25:50;1.33;;;1.33;;
10029;SDS011;5055;52.054;8.524;2022-12-18T04:28:18;0.85;;;0.85;;
10029;SDS011;5055;52.054;8.524;2022-12-18T04:30:48;1.20;;;1.20;;
10029;SDS011;5055;52.054;8.524;2022-12-18T04:33:16;1.48;;;1.48;;
10029;SDS011;5055;52.054;8.524;2022-12-18T04:35:45;1.25;;;1.25;;
10029;SDS011;5055;52.054;8.524;2022-12-18T04:38:13;1.20;;;1.20;;
10029;SDS011;5055;52.054;8.524;2022-12-18T04:40:41;1.52;;;1.52;;
10029;SDS011;5055;52.054;8.524;2022-12-18T04:43:10;2.05;;;2.05;;
10029;SDS011;5055;52.054;8.524;2022-12-18T04:45:38;1.63;;;1.63;;
10029;SDS011;5055;52.054;8.524;2022-12-18T04:48:08;1.77;;;1.77;;
10029;SDS011;5055;52.054;8.524;2022-12-18T04:50:36;1.33;;;1.33;;
10029;SDS011;5055;52.054;8.524;2022-12-18T04:53:06;1.67;;;1.67;;
10029;SDS011;5055;52.054;8.524;2022-12-18T04:55:35;1.65;;;1.65;;
10029;SDS011;5055;52.054;8.524;2022-12-18T04:58:04;1.50;;;1.50;;
10029;SDS011;5055;52.054;8.524;2022-12-18T05:00:32;1.20;;;1.20;;
10029;SDS011;5055;52.054;8.524;2022-12-18T05:03:00;1.40;;;1.40;;
10029;SDS011;5055;52.054;8.524;2022-12-18T05:05:30;1.05;;;1.05;;
10029;SDS011;5055;52.054;8.524;2022-12-18T05:07:59;1.70;;;1.70;;
10029;SDS011;5055;52.054;8.524;2022-12-18T05:10:27;1.00;;;1.00;;
10029;SDS011;5055;52.054;8.524;2022-12-18T05:13:03;1.27;;;1.27;;
10029;SDS011;5055;52.054;8.524;2022-12-18T05:15:31;0.73;;;0.73;;
10029;SDS011;5055;52.054;8.524;2022-12-18T05:18:00;1.27;;;1.27;;
10029;SDS011;5055;52.054;8.524;2022-12-18T05:20:32;0.70;;;0.70;;
10029;SDS011;5055;52.054;8.524;2022-12-18T05:23:00;1.35;;;1.35;;
10029;SDS011;5055;52.054;8.524;2022-12-18T05:25:28;0.85;;;0.85;;
10029;SDS011;5055;52.054;8.524;2022-12-18T05:27:56;1.83;;;1.83;;
10029;SDS011;5055;52.054;8.524;2022-12-18T05:30:25;0.70;;;0.70;;
10029;SDS011;5055;52.054;8.524;2022-12-18T05:32:53;1.30;;;1.30;;
10029;SDS011;5055;52.054;8.524;2022-12-18T05:35:21;1.27;;;1.27;;
10029;SDS011;5055;52.054;8.524;2022-12-18T05:37:51;1.30;;;1.30;;
10029;SDS011;5055;52.054;8.524;2022-12-18T05:40:19;1.00;;;1.00;;
10029;SDS011;5055;52.054;8.524;2022-12-18T05:42:47;1.10;;;1.10;;
10029;SDS011;5055;52.054;8.524;2022-12-18T05:45:15;1.13;;;1.13;;
10029;SDS011;5055;52.054;8.524;2022-12-18T05:47:43;1.40;;;1.40;;
10029;SDS011;5055;52.054;8.524;2022-12-18T05:50:11;1.02;;;1.02;;
10029;SDS011;5055;52.054;8.524;2022-12-18T05:52:39;1.15;;;1.15;;
10029;SDS011;5055;52.054;8.524;2022-12-18T05:55:09;1.15;;;1.15;;
10029;SDS011;5055;52.054;8.524;2022-12-18T05:57:37;1.60;;;1.60;;
10029;SDS011;5055;52.054;8.524;2022-12-18T06:00:06;1.13;;;1.13;;
10029;SDS011;5055;52.054;8.524;2022-12-18T06:02:35;1.00;;;1.00;;
10029;SDS011;5055;52.054;8.524;2022-12-18T06:05:04;1.73;;;1.73;;
10029;SDS011;5055;52.054;8.524;2022-12-18T06:07:32;1.30;;;1.30;;
10029;SDS011;5055;52.054;8.524;2022-12-18T06:10:00;1.45;;;1.45;;
10029;SDS011;5055;52.054;8.524;2022-12-18T06:12:30;1.75;;;1.75;;
10029;SDS011;5055;52.054;8.524;2022-12-18T06:14:59;1.05;;;1.05;;
10029;SDS011;5055;52.054;8.524;2022-12-18T06:17:28;1.52;;;1.52;;
10029;SDS011;5055;52.054;8.524;2022-12-18T06:19:56;1.48;;;1.48;;
10029;SDS011;5055;52.054;8.524;2022-12-18T06:22:24;1.48;;;1.48;;
10029;SDS011;5055;52.054;8.524;2022-12-18T06:24:53;1.23;;;1.23;;
10029;SDS011;5055;52.054;8.524;2022-12-18T06:27:21;1.48;;;1.48;;
10029;SDS011;5055;52.054;8.524;2022-12-18T06:29:50;1.10;;;1.10;;
10029;SDS011;5055;52.054;8.524;2022-12-18T06:32:18;1.25;;;1.25;;
10029;SDS011;5055;52.054;8.524;2022-12-18T06:34:46;0.90;;;0.90;;
10029;SDS011;5055;52.054;8.524;2022-12-18T06:37:14;1.33;;;1.33;;
10029;SDS011;5055;52.054;8.524;2022-12-18T06:39:42;1.17;;;1.17;;
10029;SDS011;5055;52.054;8.524;2022-12-18T06:42:11;1.60;;;1.60;;
10029;SDS011;5055;52.054;8.524;2022-12-18T06:44:39;1.27;;;1.27;;
10029;SDS011;5055;52.054;8.524;2022-12-18T06:47:08;1.10;;;1.10;;
10029;SDS011;5055;52.054;8.524;2022-12-18T06:49:36;1.60;;;1.60;;
10029;SDS011;5055;52.054;8.524;2022-12-18T06:52:04;1.40;;;1.40;;
10029;SDS011;5055;52.054;8.524;2022-12-18T06:54:33;1.20;;;1.20;;
10029;SDS011;5055;52.054;8.524;2022-12-18T06:57:01;1.58;;;1.58;;
10029;SDS011;5055;52.054;8.524;2022-12-18T06:59:29;1.60;;;1.60;;
10029;SDS011;5055;52.054;8.524;2022-12-18T07:01:57;1.35;;;1.35;;
10029;SDS011;5055;52.054;8.524;2022-12-18T07:04:28;1.40;;;1.40;;
10029;SDS011;5055;52.054;8.524;2022-12-18T07:06:56;1.58;;;1.58;;
10029;SDS011;5055;52.054;8.524;2022-12-18T07:09:25;1.48;;;1.48;;
10029;SDS011;5055;52.054;8.524;2022-12-18T07:11:55;0.75;;;0.75;;
10029;SDS011;5055;52.054;8.524;2022-12-18T07:14:23;1.10;;;1.10;;
10029;SDS011;5055;52.054;8.524;2022-12-18T07:16:51;1.85;;;1.85;;
10029;SDS011;5055;52.054;8.524;2022-12-18T07:19:19;1.20;;;1.20;;
10029;SDS011;5055;52.054;8.524;2022-12-18T07:21:50;1.55;;;1.55;;
10029;SDS011;5055;52.054;8.524;2022-12-18T07:24:18;1.27;;;1.27;;
10029;SDS011;5055;52.054;8.524;2022-12-18T07:26:46;1.63;;;1.63;;
10029;SDS011;5055;52.054;8.524;2022-12-18T07:29:15;0.90;;;0.90;;
10029;SDS011;5055;52.054;8.524;2022-12-18T07:31:43;1.23;;;1.23;;
10029;SDS011;5055;52.054;8.524;2022-12-18T07:34:11;1.10;;;1.10;;
10029;SDS011;5055;52.054;8.524;2022-12-18T07:36:39;1.17;;;1.17;;
10029;SDS011;5055;52.054;8.524;2022-12-18T07:39:10;0.98;;;0.98;;
10029;SDS011;5055;52.054;8.524;2022-12-18T07:41:38;0.77;;;0.77;;
10029;SDS011;5055;52.054;8.524;2022-12-18T07:44:12;1.38;;;1.38;;
10029;SDS011;5055;52.054;8.524;2022-12-18T07:46:41;1.52;;;1.52;;
10029;SDS011;5055;52.054;8.524;2022-12-18T07:49:09;1.40;;;1.40;;
10029;SDS011;5055;52.054;8.524;2022-12-18T07:51:37;1.60;;;1.60;;
10029;SDS011;5055;52.054;8.524;2022-12-18T07:54:05;1.58;;;1.58;;
10029;SDS011;5055;52.054;8.524;2022-12-18T07:56:34;1.02;;;1.02;;
10029;SDS011;5055;52.054;8.524;2022-12-18T07:59:03;1.20;;;1.20;;
10029;SDS011;5055;52.054;8.524;2022-12-18T08:01:31;1.40;;;1.40;;
10029;SDS011;5055;52.054;8.524;2022-12-18T08:04:00;1.08;;;1.08;;
10029;SDS011;5055;52.054;8.524;2022-12-18T08:06:28;1.40;;;1.40;;
10029;SDS011;5055;52.054;8.524;2022-12-18T08:08:57;1.08;;;1.08;;
10029;SDS011;5055;52.054;8.524;2022-12-18T08:11:25;0.82;;;0.82;;
10029;SDS011;5055;52.054;8.524;2022-12-18T08:13:56;1.73;;;1.73;;
10029;SDS011;5055;52.054;8.524;2022-12-18T08:16:26;1.25;;;1.25;;
10029;SDS011;5055;52.054;8.524;2022-12-18T08:18:54;0.77;;;0.77;;
10029;SDS011;5055;52.054;8.524;2022-12-18T08:21:23;1.45;;;1.45;;
10029;SDS011;5055;52.054;8.524;2022-12-18T08:23:54;1.02;;;1.02;;
10029;SDS011;5055;52.054;8.524;2022-12-18T08:26:23;0.60;;;0.60;;
10029;SDS011;5055;52.054;8.524;2022-12-18T08:28:53;0.80;;;0.80;;
10029;SDS011;5055;52.054;8.524;2022-12-18T08:31:24;0.90;;;0.90;;
10029;SDS011;5055;52.054;8.524;2022-12-18T08:33:54;1.05;;;1.05;;
10029;SDS011;5055;52.054;8.524;2022-12-18T08:36:23;0.95;;;0.95;;
10029;SDS011;5055;52.054;8.524;2022-12-18T08:38:52;1.17;;;1.17;;
10029;SDS011;5055;52.054;8.524;2022-12-18T08:41:21;1.10;;;1.10;;
10029;SDS011;5055;52.054;8.524;2022-12-18T08:43:49;1.20;;;1.20;;
10029;SDS011;5055;52.054;8.524;2022-12-18T08:46:36;0.93;;;0.93;;
10029;SDS011;5055;52.054;8.524;2022-12-18T08:49:06;0.57;;;0.57;;
10029;SDS011;5055;52.054;8.524;2022-12-18T08:51:36;1.00;;;1.00;;
10029;SDS011;5055;52.054;8.524;2022-12-18T08:54:04;1.07;;;1.07;;
10029;SDS011;5055;52.054;8.524;2022-12-18T08:56:33;0.77;;;0.77;;
10029;SDS011;5055;52.054;8.524;2022-12-18T08:59:01;0.80;;;0.80;;
10029;SDS011;5055;52.054;8.524;2022-12-18T09:01:30;1.33;;;1.33;;
10029;SDS011;5055;52.054;8.524;2022-12-18T09:04:01;1.10;;;1.10;;
10029;SDS011;5055;52.054;8.524;2022-12-18T09:06:32;0.70;;;0.70;;
10029;SDS011;5055;52.054;8.524;2022-12-18T09:09:00;0.90;;;0.90;;
10029;SDS011;5055;52.054;8.524;2022-12-18T09:11:28;0.77;;;0.77;;
10029;SDS011;5055;52.054;8.524;2022-12-18T09:13:57;0.40;;;0.40;;
10029;SDS011;5055;52.054;8.524;2022-12-18T09:16:27;0.63;;;0.63;;
10029;SDS011;5055;52.054;8.524;2022-12-18T09:18:58;0.67;;;0.67;;
10029;SDS011;5055;52.054;8.524;2022-12-18T09:21:29;0.60;;;0.60;;
10029;SDS011;5055;52.054;8.524;2022-12-18T09:24:02;0.43;;;0.43;;
10029;SDS011;5055;52.054;8.524;2022-12-18T09:26:33;1.10;;;1.10;;
10029;SDS011;5055;52.054;8.524;2022-12-18T09:29:01;0.60;;;0.60;;
10029;SDS011;5055;52.054;8.524;2022-12-18T09:31:30;1.03;;;1.03;;
10029;SDS011;5055;52.054;8.524;2022-12-18T09:33:58;0.50;;;0.50;;
10029;SDS011;5055;52.054;8.524;2022-12-18T09:36:26;0.90;;;0.90;;
10029;SDS011;5055;52.054;8.524;2022-12-18T09:38:56;0.50;;;0.50;;
10029;SDS011;5055;52.054;8.524;2022-12-18T09:41:41;0.83;;;0.83;;
10029;SDS011;5055;52.054;8.524;2022-12-18T09:44:15;0.83;;;0.83;;
10029;SDS011;5055;52.054;8.524;2022-12-18T09:46:50;0.90;;;0.90;;
10029;SDS011;5055;52.054;8.524;2022-12-18T09:49:31;0.60;;;0.60;;
10029;SDS011;5055;52.054;8.524;2022-12-18T09:52:09;1.00;;;1.00;;
10029;SDS011;5055;52.054;8.524;2022-12-18T09:54:43;0.67;;;0.67;;
10029;SDS011;5055;52.054;8.524;2022-12-18T09:57:14;0.67;;;0.67;;
10029;SDS011;5055;52.054;8.524;2022-12-18T09:59:46;0.40;;;0.40;;
10029;SDS011;5055;52.054;8.524;2022-12-18T10:02:19;0.63;;;0.63;;
10029;SDS011;5055;52.054;8.524;2022-12-18T10:04:51;0.80;;;0.80;;
10029;SDS011;5055;52.054;8.524;2022-12-18T10:07:37;1.17;;;1.17;;
10029;SDS011;5055;52.054;8.524;2022-12-18T10:10:19;0.60;;;0.60;;
10029;SDS011;5055;52.054;8.524;2022-12-18T10:12:55;0.60;;;0.60;;
10029;SDS011;5055;52.054;8.524;2022-12-18T10:15:33;0.30;;;0.30;;
10029;SDS011;5055;52.054;8.524;2022-12-18T10:18:10;0.57;;;0.57;;
10029;SDS011;5055;52.054;8.524;2022-12-18T10:20:51;0.67;;;0.67;;
10029;SDS011;5055;52.054;8.524;2022-12-18T10:23:24;0.63;;;0.63;;
10029;SDS011;5055;52.054;8.524;2022-12-18T10:25:59;0.77;;;0.77;;
10029;SDS011;5055;52.054;8.524;2022-12-18T10:28:31;0.60;;;0.60;;
10029;SDS011;5055;52.054;8.524;2022-12-18T10:31:01;0.77;;;0.77;;
10029;SDS011;5055;52.054;8.524;2022-12-18T10:33:30;0.73;;;0.73;;
10029;SDS011;5055;52.054;8.524;2022-12-18T10:36:00;0.70;;;0.70;;
10029;SDS011;5055;52.054;8.524;2022-12-18T10:38:31;0.70;;;0.70;;
10029;SDS011;5055;52.054;8.524;2022-12-18T10:41:00;0.70;;;0.70;;
10029;SDS011;5055;52.054;8.524;2022-12-18T10:43:30;0.40;;;0.40;;
10029;SDS011;5055;52.054;8.524;2022-12-18T10:46:00;0.50;;;0.50;;
10029;SDS011;5055;52.054;8.524;2022-12-18T10:48:39;0.40;;;0.40;;
10029;SDS011;5055;52.054;8.524;2022-12-18T10:51:19;0.73;;;0.73;;
10029;SDS011;5055;52.054;8.524;2022-12-18T10:53:55;0.30;;;0.30;;
10029;SDS011;5055;52.054;8.524;2022-12-18T10:56:26;0.57;;;0.57;;
10029;SDS011;5055;52.054;8.524;2022-12-18T10:58:57;0.40;;;0.40;;
10029;SDS011;5055;52.054;8.524;2022-12-18T11:01:27;0.60;;;0.60;;
10029;SDS011;5055;52.054;8.524;2022-12-18T11:03:59;0.60;;;0.60;;
10029;SDS011;5055;52.054;8.524;2022-12-18T11:06:29;0.50;;;0.50;;
10029;SDS011;5055;52.054;8.524;2022-12-18T11:09:00;0.40;;;0.40;;
10029;SDS011;5055;52.054;8.524;2022-12-18T11:11:39;0.60;;;0.60;;
10029;SDS011;5055;52.054;8.524;2022-12-18T11:14:12;0.30;;;0.30;;
10029;SDS011;5055;52.054;8.524;2022-12-18T11:16:45;0.33;;;0.33;;
10029;SDS011;5055;52.054;8.524;2022-12-18T11:19:35;0.30;;;0.30;;
10029;SDS011;5055;52.054;8.524;2022-12-18T11:22:17;0.50;;;0.50;;
10029;SDS011;5055;52.054;8.524;2022-12-18T11:24:53;0.40;;;0.40;;
10029;SDS011;5055;52.054;8.524;2022-12-18T11:27:49;0.40;;;0.40;;
10029;SDS011;5055;52.054;8.524;2022-12-18T11:30:21;0.40;;;0.40;;
10029;SDS011;5055;52.054;8.524;2022-12-18T11:32:53;0.60;;;0.60;;
10029;SDS011;5055;52.054;8.524;2022-12-18T11:35:30;0.30;;;0.30;;
10029;SDS011;5055;52.054;8.524;2022-12-18T11:38:16;0.53;;;0.53;;
10029;SDS011;5055;52.054;8.524;2022-12-18T11:40:51;0.33;;;0.33;;
10029;SDS011;5055;52.054;8.524;2022-12-18T11:43:29;0.40;;;0.40;;
10029;SDS011;5055;52.054;8.524;2022-12-18T11:46:04;0.50;;;0.50;;
10029;SDS011;5055;52.054;8.524;2022-12-18T11:48:43;0.30;;;0.30;;
10029;SDS011;5055;52.054;8.524;2022-12-18T11:51:18;0.60;;;0.60;;
10029;SDS011;5055;52.054;8.524;2022-12-18T11:53:56;0.40;;;0.40;;
10029;SDS011;5055;52.054;8.524;2022-12-18T11:56:30;0.40;;;0.40;;
10029;SDS011;5055;52.054;8.524;2022-12-18T11:59:06;0.27;;;0.27;;
10029;SDS011;5055;52.054;8.524;2022-12-18T12:01:44;0.40;;;0.40;;
10029;SDS011;5055;52.054;8.524;2022-12-18T12:04:26;0.40;;;0.40;;
10029;SDS011;5055;52.054;8.524;2022-12-18T12:07:26;0.40;;;0.40;;
10029;SDS011;5055;52.054;8.524;2022-12-18T12:10:07;0.30;;;0.30;;
10029;SDS011;5055;52.054;8.524;2022-12-18T12:12:54;0.23;;;0.23;;
10029;SDS011;5055;52.054;8.524;2022-12-18T12:15:40;0.50;;;0.50;;
10029;SDS011;5055;52.054;8.524;2022-12-18T12:18:18;0.30;;;0.30;;
10029;SDS011;5055;52.054;8.524;2022-12-18T12:20:58;0.50;;;0.50;;
10029;SDS011;5055;52.054;8.524;2022-12-18T12:23:33;0.40;;;0.40;;
10029;SDS011;5055;52.054;8.524;2022-12-18T12:26:09;0.40;;;0.40;;
10029;SDS011;5055;52.054;8.524;2022-12-18T12:28:45;0.50;;;0.50;;
10029;SDS011;5055;52.054;8.524;2022-12-18T12:31:35;0.30;;;0.30;;
10029;SDS011;5055;52.054;8.524;2022-12-18T12:34:16;0.30;;;0.30;;
10029;SDS011;5055;52.054;8.524;2022-12-18T12:36:52;0.40;;;0.40;;
10029;SDS011;5055;52.054;8.524;2022-12-18T12:39:31;0.30;;;0.30;;
10029;SDS011;5055;52.054;8.524;2022-12-18T12:42:03;0.30;;;0.30;;
10029;SDS011;5055;52.054;8.524;2022-12-18T12:44:54;0.30;;;0.30;;
10029;SDS011;5055;52.054;8.524;2022-12-18T12:47:26;0.30;;;0.30;;
10029;SDS011;5055;52.054;8.524;2022-12-18T12:49:58;0.40;;;0.40;;
10029;SDS011;5055;52.054;8.524;2022-12-18T12:52:34;0.60;;;0.60;;
10029;SDS011;5055;52.054;8.524;2022-12-18T12:55:17;0.40;;;0.40;;
10029;SDS011;5055;52.054;8.524;2022-12-18T12:57:52;0.50;;;0.50;;
10029;SDS011;5055;52.054;8.524;2022-12-18T13:00:29;0.47;;;0.47;;
10029;SDS011;5055;52.054;8.524;2022-12-18T13:03:07;0.50;;;0.50;;
10029;SDS011;5055;52.054;8.524;2022-12-18T13:05:41;0.40;;;0.40;;
10029;SDS011;5055;52.054;8.524;2022-12-18T13:08:22;0.70;;;0.70;;
10029;SDS011;5055;52.054;8.524;2022-12-18T13:10:56;0.40;;;0.40;;
10029;SDS011;5055;52.054;8.524;2022-12-18T13:13:47;0.30;;;0.30;;
10029;SDS011;5055;52.054;8.524;2022-12-18T13:16:20;0.50;;;0.50;;
10029;SDS011;5055;52.054;8.524;2022-12-18T13:18:50;0.37;;;0.37;;
10029;SDS011;5055;52.054;8.524;2022-12-18T13:21:21;0.80;;;0.80;;
10029;SDS011;5055;52.054;8.524;2022-12-18T13:23:54;0.40;;;0.40;;
10029;SDS011;5055;52.054;8.524;2022-12-18T13:26:30;0.57;;;0.57;;
10029;SDS011;5055;52.054;8.524;2022-12-18T13:29:01;0.30;;;0.30;;
10029;SDS011;5055;52.054;8.524;2022-12-18T13:34:43;0.30;;;0.30;;
10029;SDS011;5055;52.054;8.524;2022-12-18T13:43:24;0.57;;;0.57;;
10029;SDS011;5055;52.054;8.524;2022-12-18T13:46:02;0.60;;;0.60;;
10029;SDS011;5055;52.054;8.524;2022-12-18T13:48:33;0.60;;;0.60;;
10029;SDS011;5055;52.054;8.524;2022-12-18T13:51:10;0.70;;;0.70;;
10029;SDS011;5055;52.054;8.524;2022-12-18T13:53:46;0.90;;;0.90;;
10029;SDS011;5055;52.054;8.524;2022-12-18T13:56:18;0.67;;;0.67;;
10029;SDS011;5055;52.054;8.524;2022-12-18T14:01:44;0.77;;;0.77;;
10029;SDS011;5055;52.054;8.524;2022-12-18T14:04:18;0.50;;;0.50;;
10029;SDS011;5055;52.054;8.524;2022-12-18T14:06:54;0.70;;;0.70;;
10029;SDS011;5055;52.054;8.524;2022-12-18T14:09:27;0.40;;;0.40;;
10029;SDS011;5055;52.054;8.524;2022-12-18T14:12:02;0.30;;;0.30;;
10029;SDS011;5055;52.054;8.524;2022-12-18T14:14:45;0.50;;;0.50;;
10029;SDS011;5055;52.054;8.524;2022-12-18T14:17:20;0.53;;;0.53;;
10029;SDS011;5055;52.054;8.524;2022-12-18T14:19:49;0.30;;;0.30;;
10029;SDS011;5055;52.054;8.524;2022-12-18T14:22:21;0.50;;;0.50;;
10029;SDS011;5055;52.054;8.524;2022-12-18T14:25:05;0.40;;;0.40;;
10029;SDS011;5055;52.054;8.524;2022-12-18T14:27:42;0.40;;;0.40;;
10029;SDS011;5055;52.054;8.524;2022-12-18T14:30:24;0.40;;;0.40;;
10029;SDS011;5055;52.054;8.524;2022-12-18T14:32:59;0.43;;;0.43;;
10029;SDS011;5055;52.054;8.524;2022-12-18T14:35:32;0.50;;;0.50;;
10029;SDS011;5055;52.054;8.524;2022-12-18T14:38:15;0.67;;;0.67;;
10029;SDS011;5055;52.054;8.524;2022-12-18T14:40:51;0.50;;;0.50;;
10029;SDS011;5055;52.054;8.524;2022-12-18T14:43:21;0.50;;;0.50;;
10029;SDS011;5055;52.054;8.524;2022-12-18T14:45:50;0.53;;;0.53;;
10029;SDS011;5055;52.054;8.524;2022-12-18T14:48:20;0.60;;;0.60;;
10029;SDS011;5055;52.054;8.524;2022-12-18T14:50:57;0.40;;;0.40;;
10029;SDS011;5055;52.054;8.524;2022-12-18T14:53:32;0.30;;;0.30;;
10029;SDS011;5055;52.054;8.524;2022-12-18T14:56:03;0.40;;;0.40;;
10029;SDS011;5055;52.054;8.524;2022-12-18T14:58:44;0.50;;;0.50;;
10029;SDS011;5055;52.054;8.524;2022-12-18T15:01:18;0.40;;;0.40;;
10029;SDS011;5055;52.054;8.524;2022-12-18T15:03:49;0.30;;;0.30;;
10029;SDS011;5055;52.054;8.524;2022-12-18T15:06:24;0.30;;;0.30;;
10029;SDS011;5055;52.054;8.524;2022-12-18T15:08:56;0.40;;;0.40;;
10029;SDS011;5055;52.054;8.524;2022-12-18T15:11:30;0.37;;;0.37;;
10029;SDS011;5055;52.054;8.524;2022-12-18T15:14:21;0.50;;;0.50;;
10029;SDS011;5055;52.054;8.524;2022-12-18T15:16:52;0.43;;;0.43;;
10029;SDS011;5055;52.054;8.524;2022-12-18T15:19:22;0.60;;;0.60;;
10029;SDS011;5055;52.054;8.524;2022-12-18T15:21:56;0.40;;;0.40;;
10029;SDS011;5055;52.054;8.524;2022-12-18T15:24:33;0.43;;;0.43;;
10029;SDS011;5055;52.054;8.524;2022-12-18T15:27:01;0.40;;;0.40;;
10029;SDS011;5055;52.054;8.524;2022-12-18T15:29:29;0.77;;;0.77;;
10029;SDS011;5055;52.054;8.524;2022-12-18T15:31:58;0.40;;;0.40;;
10029;SDS011;5055;52.054;8.524;2022-12-18T15:34:31;0.70;;;0.70;;
10029;SDS011;5055;52.054;8.524;2022-12-18T15:37:00;0.40;;;0.40;;
10029;SDS011;5055;52.054;8.524;2022-12-18T15:39:28;0.40;;;0.40;;
10029;SDS011;5055;52.054;8.524;2022-12-18T15:41:58;0.43;;;0.43;;